Time;durP1;ratioP1;P1;durP2;ratioP2;P2;SDS_P1;SDS_P2;PMS_P1;PMS_P2;Temp;Humidity;BMP_temperature;BMP_pressure;BME280_temperature;BME280_humidity;BME280_pressure;Samples;Min_cycle;Max_cycle;Signal;HPM_P1;HPM_P2
2022/01/09 00:00:27;;;;;;;5.90;2.60;;;-1.40;99.90;;;;;;5111684;28;20046;-48
2022/01/09 00:02:54;;;;;;;6.80;3.33;;;-1.40;99.90;;;;;;5112606;28;20055;-51
2022/01/09 00:05:21;;;;;;;6.32;3.75;;;-1.30;99.90;;;;;;5111555;28;20057;-48
2022/01/09 00:07:49;;;;;;;6.60;3.88;;;-1.40;99.90;;;;;;5111934;28;20163;-47
2022/01/09 00:10:17;;;;;;;10.73;4.32;;;-1.40;99.90;;;;;;5111695;28;20047;-48
2022/01/09 00:12:44;;;;;;;9.65;4.25;;;-1.50;99.90;;;;;;5112336;28;20040;-47
2022/01/09 00:15:11;;;;;;;8.27;3.72;;;-1.50;99.90;;;;;;5111939;28;20311;-49
2022/01/09 00:17:39;;;;;;;5.95;2.50;;;-1.40;99.90;;;;;;5112089;28;20120;-51
2022/01/09 00:20:07;;;;;;;4.60;2.15;;;-1.20;99.90;;;;;;5112120;28;20242;-48
2022/01/09 00:22:49;;;;;;;7.20;3.72;;;-1.00;99.90;;;;;;5111854;28;20093;-48
2022/01/09 00:25:18;;;;;;;3.85;2.55;;;-1.00;99.90;;;;;;5093259;28;20511;-47
2022/01/09 00:27:45;;;;;;;7.32;3.83;;;-1.00;99.90;;;;;;5111548;28;20580;-50
2022/01/09 00:30:15;;;;;;;6.07;3.10;;;-1.10;99.90;;;;;;5111822;28;20097;-47
2022/01/09 00:32:42;;;;;;;8.93;3.33;;;-1.20;99.90;;;;;;5110657;28;20088;-48
2022/01/09 00:35:10;;;;;;;6.40;3.55;;;-1.20;99.90;;;;;;5111420;28;20139;-48
2022/01/09 00:37:38;;;;;;;6.40;3.05;;;-1.20;99.90;;;;;;5111824;28;20080;-48
2022/01/09 00:40:07;;;;;;;5.63;3.33;;;-1.10;99.90;;;;;;5111407;28;20491;-49
2022/01/09 00:42:34;;;;;;;6.82;3.67;;;-1.20;99.90;;;;;;5111590;28;20109;-50
2022/01/09 00:45:02;;;;;;;5.15;2.80;;;-1.20;99.90;;;;;;5095522;28;20097;-51
2022/01/09 00:47:29;;;;;;;5.82;3.25;;;-1.30;99.90;;;;;;5091328;28;20493;-48
2022/01/09 00:49:56;;;;;;;5.05;2.50;;;-1.30;99.90;;;;;;5091049;28;20520;-53
2022/01/09 00:52:23;;;;;;;9.23;3.60;;;-1.30;99.90;;;;;;5091509;28;20048;-50
2022/01/09 00:54:49;;;;;;;7.57;3.75;;;-1.30;99.90;;;;;;5106567;28;20039;-48
2022/01/09 00:57:16;;;;;;;4.50;2.65;;;-1.30;99.90;;;;;;5111534;28;20052;-52
2022/01/09 00:59:43;;;;;;;7.65;3.63;;;-1.30;99.90;;;;;;5111625;28;20039;-53
2022/01/09 01:02:10;;;;;;;6.90;2.88;;;-1.30;99.90;;;;;;5111221;28;20043;-49
2022/01/09 01:04:38;;;;;;;5.70;3.00;;;-1.30;99.90;;;;;;5111827;28;20067;-54
2022/01/09 01:07:06;;;;;;;7.03;2.97;;;-1.30;99.90;;;;;;5110740;28;20052;-51
2022/01/09 01:09:33;;;;;;;;;;;-1.30;99.90;;;;;;5112145;28;20051;-51
2022/01/09 01:12:01;;;;;;;7.55;3.00;;;-1.20;99.90;;;;;;5111613;28;20448;-50
2022/01/09 01:14:29;;;;;;;6.40;2.67;;;-1.20;99.90;;;;;;5112022;28;20445;-52
2022/01/09 01:16:56;;;;;;;4.65;2.60;;;-1.20;99.90;;;;;;5111319;28;20058;-51
2022/01/09 01:19:23;;;;;;;4.57;3.00;;;-1.10;99.90;;;;;;5115125;28;20047;-51
2022/01/09 01:21:50;;;;;;;4.97;2.80;;;-1.10;99.90;;;;;;5115599;28;20616;-50
2022/01/09 01:24:18;;;;;;;5.32;3.10;;;-1.10;99.90;;;;;;5115588;28;20047;-50
2022/01/09 01:26:45;;;;;;;5.78;2.72;;;-1.10;99.90;;;;;;5115293;28;20043;-50
2022/01/09 01:29:12;;;;;;;4.43;2.70;;;-1.10;99.90;;;;;;5115475;28;20093;-51
2022/01/09 01:31:39;;;;;;;5.05;2.30;;;-1.10;99.90;;;;;;5115504;28;20036;-52
2022/01/09 01:34:06;;;;;;;5.15;2.88;;;-1.00;99.90;;;;;;5115483;28;20441;-51
2022/01/09 01:36:33;;;;;;;5.07;2.80;;;-0.90;99.90;;;;;;5114908;28;20130;-49
2022/01/09 01:38:59;;;;;;;5.25;2.97;;;-0.90;99.90;;;;;;5115390;28;20404;-50
2022/01/09 01:41:26;;;;;;;5.63;2.92;;;-0.90;99.90;;;;;;5115601;28;20063;-51
2022/01/09 01:43:53;;;;;;;5.97;3.15;;;-0.90;99.90;;;;;;5115384;28;20044;-50
2022/01/09 01:46:20;;;;;;;5.57;2.90;;;-0.90;99.90;;;;;;5114881;28;20085;-49
2022/01/09 01:48:47;;;;;;;9.80;3.13;;;-1.00;99.90;;;;;;5115168;28;20055;-51
2022/01/09 01:51:14;;;;;;;4.10;2.78;;;-1.00;99.90;;;;;;5115101;28;20067;-51
2022/01/09 01:53:41;;;;;;;6.38;3.42;;;-1.00;99.90;;;;;;5115379;28;20054;-49
2022/01/09 01:56:12;;;;;;;;;;;-1.00;99.90;;;;;;5115155;28;20048;-49
2022/01/09 01:58:39;;;;;;;3.88;2.55;;;-1.00;99.90;;;;;;5111336;28;19919;-50
2022/01/09 02:01:06;;;;;;;5.00;2.58;;;-1.00;99.90;;;;;;5106138;28;20048;-51
2022/01/09 02:03:33;;;;;;;4.85;2.03;;;-1.00;99.90;;;;;;5113965;28;20051;-54
2022/01/09 02:06:00;;;;;;;5.13;1.95;;;-0.90;99.90;;;;;;5114456;28;20040;-50
2022/01/09 02:08:27;;;;;;;3.88;2.15;;;-0.80;99.90;;;;;;5114685;28;20040;-52
2022/01/09 02:10:53;;;;;;;6.55;2.53;;;-0.70;99.90;;;;;;5114100;28;20092;-50
2022/01/09 02:13:21;;;;;;;7.97;2.15;;;-0.70;99.90;;;;;;5114646;28;20032;-50
2022/01/09 02:15:48;;;;;;;6.72;2.22;;;-0.70;99.90;;;;;;5114252;28;20061;-50
2022/01/09 02:18:19;;;;;;;2.63;1.80;;;-0.60;99.90;;;;;;5114624;28;20062;-50
2022/01/09 02:20:48;;;;;;;4.03;1.98;;;-0.60;99.90;;;;;;5096560;28;20047;-50
2022/01/09 02:23:16;;;;;;;4.25;1.73;;;-0.70;99.90;;;;;;5114378;28;20050;-51
2022/01/09 02:25:44;;;;;;;4.15;1.40;;;-0.70;99.90;;;;;;5114082;28;20084;-51
2022/01/09 02:28:14;;;;;;;3.80;1.73;;;-0.70;99.90;;;;;;5114311;28;20097;-51
2022/01/09 02:30:42;;;;;;;4.25;2.40;;;-0.70;99.90;;;;;;5113599;28;20092;-53
2022/01/09 02:33:11;;;;;;;3.80;1.80;;;-0.60;99.90;;;;;;5114232;28;20499;-52
2022/01/09 02:35:38;;;;;;;2.58;1.67;;;-0.60;99.90;;;;;;5114271;28;20392;-50
2022/01/09 02:38:06;;;;;;;5.22;1.63;;;-0.60;99.90;;;;;;5114320;28;20043;-49
2022/01/09 02:40:33;;;;;;;4.97;1.70;;;-0.50;99.90;;;;;;5114212;28;20048;-50
2022/01/09 02:43:00;;;;;;;4.45;1.77;;;-0.40;99.90;;;;;;5114214;28;20509;-52
2022/01/09 02:45:28;;;;;;;4.45;2.10;;;-0.20;99.90;;;;;;5113631;28;20044;-51
2022/01/09 02:47:57;;;;;;;2.88;1.65;;;0.00;99.90;;;;;;5114184;28;20070;-51
2022/01/09 02:52:55;;;;;;;3.88;2.22;;;0.10;99.90;;;;;;5114057;28;20076;-51
2022/01/09 02:55:24;;;;;;;2.35;1.50;;;0.10;99.90;;;;;;5113317;28;20138;-51
2022/01/09 02:57:54;;;;;;;2.88;1.20;;;-0.10;99.90;;;;;;5113947;28;20043;-50
2022/01/09 03:00:27;;;;;;;6.90;2.20;;;-0.30;99.90;;;;;;5113729;28;20039;-53
2022/01/09 03:02:55;;;;;;;3.00;1.70;;;-0.40;99.90;;;;;;5113866;28;20075;-51
2022/01/09 03:05:22;;;;;;;2.97;1.85;;;-0.40;99.90;;;;;;5113141;28;20043;-51
2022/01/09 03:07:50;;;;;;;5.00;2.28;;;-0.40;99.90;;;;;;5113622;28;20047;-50
2022/01/09 03:10:18;;;;;;;3.03;1.67;;;-0.40;99.90;;;;;;5113514;28;20044;-50
2022/01/09 03:12:47;;;;;;;4.93;1.80;;;-0.30;99.90;;;;;;5113662;28;20491;-51
2022/01/09 03:15:14;;;;;;;3.13;1.83;;;-0.40;99.90;;;;;;5113239;28;20078;-51
2022/01/09 03:17:42;;;;;;;3.90;1.70;;;-0.40;99.90;;;;;;5113543;28;20097;-53
2022/01/09 03:20:13;;;;;;;3.75;1.58;;;-0.40;99.90;;;;;;5113288;28;20101;-50
2022/01/09 03:22:40;;;;;;;2.80;1.67;;;-0.40;99.90;;;;;;5113233;28;20051;-49
2022/01/09 03:25:08;;;;;;;2.95;1.45;;;-0.40;99.90;;;;;;5113088;28;20054;-50
2022/01/09 03:27:37;;;;;;;3.55;2.10;;;-0.40;99.90;;;;;;5113229;28;20036;-50
2022/01/09 03:30:09;;;;;;;3.25;1.67;;;-0.40;99.90;;;;;;5113090;28;20130;-52
2022/01/09 03:32:38;;;;;;;3.10;1.52;;;-0.40;99.90;;;;;;5113131;28;20380;-50
2022/01/09 03:35:07;;;;;;;4.95;1.70;;;-0.40;99.90;;;;;;5112853;28;20105;-51
2022/01/09 03:37:34;;;;;;;3.85;1.80;;;-0.40;99.90;;;;;;5112952;28;20047;-50
2022/01/09 03:40:06;;;;;;;3.10;1.70;;;-0.30;99.90;;;;;;5113146;28;20043;-50
2022/01/09 03:42:33;;;;;;;3.60;1.80;;;-0.30;99.90;;;;;;5112017;28;20521;-50
2022/01/09 03:45:00;;;;;;;2.42;1.58;;;-0.20;99.90;;;;;;5112924;28;20047;-50
2022/01/09 03:47:27;;;;;;;3.47;1.48;;;-0.20;99.90;;;;;;5112438;28;20043;-49
2022/01/09 03:49:54;;;;;;;2.72;1.30;;;-0.30;99.90;;;;;;5112919;28;20056;-50
2022/01/09 03:52:26;;;;;;;3.75;1.58;;;-0.40;99.90;;;;;;5112872;28;20114;-49
2022/01/09 03:54:54;;;;;;;5.35;1.95;;;-0.50;99.90;;;;;;5112848;28;20050;-50
2022/01/09 03:57:22;;;;;;;3.92;2.42;;;-0.50;99.90;;;;;;5112204;28;20074;-53
2022/01/09 03:59:48;;;;;;;4.97;2.00;;;-0.50;99.90;;;;;;5112576;28;20088;-52
2022/01/09 04:02:15;;;;;;;4.38;2.25;;;-0.60;99.90;;;;;;5112636;28;20484;-50
2022/01/09 04:04:42;;;;;;;4.50;1.45;;;-0.60;99.90;;;;;;5112635;28;20487;-54
2022/01/09 04:07:10;;;;;;;3.72;1.40;;;-0.60;99.90;;;;;;5112258;28;20591;-52
2022/01/09 04:09:41;;;;;;;2.80;1.52;;;-0.60;99.90;;;;;;5112486;28;20167;-51
2022/01/09 04:12:17;;;;;;;2.40;1.30;;;-0.60;99.90;;;;;;5112507;28;20050;-49
2022/01/09 04:14:46;;;;;;;5.40;1.35;;;-0.60;99.90;;;;;;5112641;28;20411;-51
2022/01/09 04:17:27;;;;;;;2.25;1.10;;;-0.60;99.90;;;;;;5112112;28;20040;-50
2022/01/09 04:19:54;;;;;;;1.30;0.95;;;-0.60;99.90;;;;;;5112409;28;20044;-50
2022/01/09 04:22:21;;;;;;;2.42;0.90;;;-0.60;99.90;;;;;;5112367;28;20558;-50
2022/01/09 04:24:48;;;;;;;1.98;1.10;;;-0.60;99.90;;;;;;5112223;28;20112;-51
2022/01/09 04:27:15;;;;;;;1.80;1.20;;;-0.60;99.90;;;;;;5111716;28;20131;-50
2022/01/09 04:29:41;;;;;;;2.22;1.10;;;-0.60;99.90;;;;;;5129079;22;20070;-52
2022/01/09 04:32:08;;;;;;;4.10;1.60;;;-0.50;99.90;;;;;;5120839;27;20084;-54
2022/01/09 04:34:35;;;;;;;3.88;1.65;;;-0.60;99.90;;;;;;5112001;28;20040;-53
2022/01/09 04:37:02;;;;;;;2.83;1.60;;;-0.60;99.90;;;;;;5111701;28;20093;-55
2022/01/09 04:39:30;;;;;;;4.72;3.45;;;-0.60;99.90;;;;;;5111774;28;20039;-52
2022/01/09 04:41:57;;;;;;;4.38;2.15;;;-0.60;99.90;;;;;;5112084;28;20047;-55
2022/01/09 04:44:24;;;;;;;4.05;2.05;;;-0.50;99.90;;;;;;5112128;28;20380;-54
2022/01/09 04:47:03;;;;;;;4.88;2.45;;;-0.50;99.90;;;;;;5111593;28;20085;-54
2022/01/09 04:49:36;;;;;;;6.20;2.58;;;-0.50;99.90;;;;;;5112030;28;20047;-53
2022/01/09 04:52:06;;;;;;;5.60;2.95;;;-0.50;99.90;;;;;;5112072;28;20113;-54
2022/01/09 04:54:33;;;;;;;5.28;2.47;;;-0.50;99.90;;;;;;5118798;28;20074;-52
2022/01/09 04:57:02;;;;;;;4.57;2.47;;;-0.50;99.90;;;;;;5118372;28;20047;-54
2022/01/09 04:59:29;;;;;;;6.85;2.90;;;-0.50;99.90;;;;;;5118690;28;20039;-55
2022/01/09 05:01:55;;;;;;;;;;;-0.50;99.90;;;;;;5119048;28;20047;-52
2022/01/09 05:04:22;;;;;;;4.07;2.47;;;-0.50;99.90;;;;;;5118633;28;20331;-54
2022/01/09 05:06:49;;;;;;;8.70;2.72;;;-0.50;99.90;;;;;;5118206;28;20043;-53
2022/01/09 05:09:16;;;;;;;4.50;2.30;;;-0.50;99.90;;;;;;5118685;28;20503;-55
2022/01/09 05:11:44;;;;;;;6.93;3.05;;;-0.50;99.90;;;;;;5118638;28;20051;-53
2022/01/09 05:14:11;;;;;;;5.32;2.60;;;-0.50;99.90;;;;;;5118550;28;20491;-55
2022/01/09 05:16:42;;;;;;;4.63;2.47;;;-0.50;99.90;;;;;;5118143;28;20039;-55
2022/01/09 05:19:17;;;;;;;6.55;2.95;;;-0.50;99.90;;;;;;5118502;28;20552;-55
2022/01/09 05:21:45;;;;;;;3.22;1.90;;;-0.50;99.90;;;;;;5118541;28;20070;-52
2022/01/09 05:24:13;;;;;;;3.88;2.22;;;-0.50;99.90;;;;;;5118576;28;20047;-54
2022/01/09 05:26:39;;;;;;;2.75;1.60;;;-0.50;99.90;;;;;;5117940;28;20040;-54
2022/01/09 05:29:06;;;;;;;2.80;1.75;;;-0.50;99.90;;;;;;5118258;28;20046;-55
2022/01/09 05:31:33;;;;;;;5.88;2.10;;;-0.50;99.90;;;;;;5118425;28;20047;-54
2022/01/09 05:34:00;;;;;;;6.45;2.88;;;-0.50;99.90;;;;;;5118662;28;20101;-52
2022/01/09 05:36:27;;;;;;;2.53;1.50;;;-0.50;99.90;;;;;;5118091;28;20069;-54
2022/01/09 05:38:54;;;;;;;4.03;1.73;;;-0.50;99.90;;;;;;5118382;28;20044;-54
2022/01/09 05:41:21;;;;;;;6.18;2.22;;;-0.60;99.90;;;;;;5118232;28;20040;-51
2022/01/09 05:43:48;;;;;;;5.20;2.17;;;-0.50;99.90;;;;;;5118266;28;20050;-53
2022/01/09 05:46:15;;;;;;;7.85;2.30;;;-0.60;99.90;;;;;;5117765;28;20487;-53
2022/01/09 05:48:43;;;;;;;4.35;2.17;;;-0.60;99.90;;;;;;5118283;28;20035;-53
2022/01/09 05:51:09;;;;;;;6.40;2.30;;;-0.60;99.90;;;;;;5118106;28;20039;-55
2022/01/09 05:53:36;;;;;;;8.23;2.42;;;-0.60;99.90;;;;;;5118520;28;20043;-53
2022/01/09 05:56:04;;;;;;;5.10;2.20;;;-0.60;99.90;;;;;;5117981;28;20048;-55
2022/01/09 05:58:33;;;;;;;3.45;2.25;;;-0.60;99.90;;;;;;5118149;28;20055;-55
2022/01/09 06:01:00;;;;;;;4.03;2.00;;;-0.50;99.90;;;;;;5118141;28;20042;-53
2022/01/09 06:03:27;;;;;;;6.07;1.92;;;-0.50;99.90;;;;;;5117996;28;20047;-55
2022/01/09 06:05:54;;;;;;;4.20;2.30;;;-0.50;99.90;;;;;;5113553;28;20123;-53
2022/01/09 06:08:21;;;;;;;10.13;3.13;;;-0.50;99.90;;;;;;5114845;28;20038;-53
2022/01/09 06:10:48;;;;;;;6.47;2.42;;;-0.50;99.90;;;;;;5114837;28;20032;-52
2022/01/09 06:13:15;;;;;;;6.30;2.70;;;-0.50;99.90;;;;;;5114580;28;20064;-52
2022/01/09 06:15:42;;;;;;;7.43;2.95;;;-0.50;99.90;;;;;;5114360;28;20064;-56
2022/01/09 06:18:09;;;;;;;10.70;3.60;;;-0.50;99.90;;;;;;5114774;28;20044;-53
2022/01/09 06:20:35;;;;;;;8.10;5.18;;;-0.50;99.90;;;;;;5114597;28;20043;-52
2022/01/09 06:23:02;;;;;;;11.50;5.38;;;-0.40;99.90;;;;;;5114629;28;20081;-52
2022/01/09 06:25:29;;;;;;;6.50;3.50;;;-0.30;99.90;;;;;;5114068;28;20043;-53
2022/01/09 06:27:56;;;;;;;8.90;4.38;;;-0.30;99.90;;;;;;5114324;28;20044;-54
2022/01/09 06:30:23;;;;;;;12.32;5.10;;;-0.30;99.90;;;;;;5114318;28;20031;-55
2022/01/09 06:32:50;;;;;;;6.00;2.70;;;-0.40;99.90;;;;;;5114452;28;20442;-54
2022/01/09 06:35:16;;;;;;;5.57;2.13;;;-0.40;99.90;;;;;;5114006;28;20047;-52
2022/01/09 06:37:43;;;;;;;4.50;1.85;;;-0.40;99.90;;;;;;5114361;28;20068;-56
2022/01/09 06:40:11;;;;;;;8.30;3.22;;;-0.40;99.90;;;;;;5114197;28;20113;-52
2022/01/09 06:42:39;;;;;;;;;;;-0.40;99.90;;;;;;5114477;28;20495;-54
2022/01/09 06:45:06;;;;;;;4.25;1.70;;;-0.40;99.90;;;;;;5114033;28;20385;-52
2022/01/09 06:47:33;;;;;;;;;;;-0.40;99.90;;;;;;5114398;28;20039;-53
2022/01/09 06:50:00;;;;;;;4.57;2.42;;;-0.40;99.90;;;;;;5114020;28;19946;-53
2022/01/09 06:52:27;;;;;;;3.60;2.25;;;-0.40;99.90;;;;;;5114086;28;20081;-53
2022/01/09 06:54:54;;;;;;;5.28;2.25;;;-0.40;99.90;;;;;;5113724;28;20129;-52
2022/01/09 06:57:20;;;;;;;4.07;2.15;;;-0.40;99.90;;;;;;5113696;28;20048;-52
2022/01/09 06:59:47;;;;;;;5.20;2.70;;;-0.40;99.90;;;;;;5113756;28;20048;-54
2022/01/09 07:02:14;;;;;;;6.40;2.90;;;-0.40;99.90;;;;;;5113713;28;20515;-52
2022/01/09 07:04:41;;;;;;;5.78;2.85;;;-0.40;99.90;;;;;;5113900;28;20046;-54
2022/01/09 07:07:08;;;;;;;7.32;3.03;;;-0.40;99.90;;;;;;5113250;28;20040;-55
2022/01/09 07:09:35;;;;;;;6.57;3.35;;;-0.50;99.90;;;;;;5113610;28;20043;-52
2022/01/09 07:12:02;;;;;;;4.90;2.97;;;-0.40;99.90;;;;;;5113487;28;20044;-51
2022/01/09 07:14:29;;;;;;;5.32;2.35;;;-0.30;99.90;;;;;;5113645;28;20445;-56
2022/01/09 07:16:56;;;;;;;4.50;2.40;;;-0.30;99.90;;;;;;5112975;28;20160;-52
2022/01/09 07:19:23;;;;;;;5.35;2.47;;;-0.30;99.90;;;;;;5113345;28;20039;-55
2022/01/09 07:21:50;;;;;;;4.00;2.22;;;-0.20;99.90;;;;;;5113375;28;20039;-54
2022/01/09 07:24:17;;;;;;;3.42;2.20;;;-0.20;99.90;;;;;;5113466;28;20074;-54
2022/01/09 07:26:44;;;;;;;7.00;2.35;;;-0.20;99.90;;;;;;5113050;28;20043;-55
2022/01/09 07:29:10;;;;;;;3.97;2.20;;;-0.10;99.90;;;;;;5113080;28;20134;-54
2022/01/09 07:31:37;;;;;;;7.13;4.72;;;-0.10;99.90;;;;;;5099981;28;20084;-54
2022/01/09 07:34:04;;;;;;;7.28;4.30;;;-0.10;99.90;;;;;;5092742;28;20043;-54
2022/01/09 07:36:32;;;;;;;7.38;3.97;;;0.00;99.90;;;;;;5088740;28;20036;-55
2022/01/09 07:38:58;;;;;;;;;;;0.00;99.90;;;;;;5093172;28;20090;-53
2022/01/09 07:41:25;;;;;;;5.88;2.42;;;0.00;99.90;;;;;;5083397;28;19927;-53
2022/01/09 07:43:52;;;;;;;4.15;2.58;;;0.00;99.90;;;;;;5072525;28;20044;-54
2022/01/09 07:46:19;;;;;;;5.80;2.47;;;0.00;99.90;;;;;;5071861;28;20036;-52
2022/01/09 07:48:46;;;;;;;5.55;2.67;;;0.00;99.90;;;;;;5072190;28;20078;-55
2022/01/09 07:51:13;;;;;;;6.28;3.15;;;0.00;99.90;;;;;;5074738;28;20036;-53
2022/01/09 07:53:39;;;;;;;12.05;5.82;;;0.00;99.90;;;;;;5072240;28;20102;-52
2022/01/09 07:56:06;;;;;;;13.15;5.40;;;0.10;99.90;;;;;;5074232;28;20435;-53
2022/01/09 07:58:33;;;;;;;8.82;4.47;;;0.20;99.90;;;;;;5072227;28;20040;-54
2022/01/09 08:01:00;;;;;;;13.07;3.42;;;0.30;99.90;;;;;;5071900;28;20044;-56
2022/01/09 08:03:27;;;;;;;6.93;3.35;;;0.30;99.90;;;;;;5071967;28;20051;-54
2022/01/09 08:05:54;;;;;;;6.90;3.45;;;0.20;99.90;;;;;;5074073;28;20565;-56
2022/01/09 08:08:21;;;;;;;7.45;3.28;;;0.20;99.90;;;;;;5071854;28;20048;-53
2022/01/09 08:10:48;;;;;;;9.13;3.53;;;0.00;99.90;;;;;;5071780;28;20041;-56
2022/01/09 08:13:15;;;;;;;6.97;3.35;;;0.00;99.90;;;;;;5089087;28;20044;-55
2022/01/09 08:15:42;;;;;;;7.10;3.70;;;0.00;99.90;;;;;;5092108;28;20036;-55
2022/01/09 08:18:09;;;;;;;4.97;2.80;;;0.10;99.90;;;;;;5091836;28;20040;-56
2022/01/09 08:20:36;;;;;;;6.45;3.28;;;0.10;99.90;;;;;;5091685;28;20083;-54
2022/01/09 08:23:03;;;;;;;6.53;3.22;;;0.10;99.90;;;;;;5091924;28;20050;-55
2022/01/09 08:25:34;;;;;;;19.30;7.50;;;0.20;99.90;;;;;;5091666;28;20101;-53
2022/01/09 08:28:01;;;;;;;19.20;6.63;;;0.30;99.90;;;;;;5091371;28;20040;-54
2022/01/09 08:30:28;;;;;;;17.75;8.38;;;0.40;99.90;;;;;;5091555;28;20050;-57
2022/01/09 08:32:55;;;;;;;20.40;8.95;;;0.40;99.90;;;;;;5091791;28;20089;-57
2022/01/09 08:35:22;;;;;;;15.55;8.38;;;0.40;99.90;;;;;;5091492;28;20040;-52
2022/01/09 08:37:49;;;;;;;;;;;0.60;99.90;;;;;;5092204;28;20036;-52
2022/01/09 08:40:19;;;;;;;15.50;7.85;;;0.60;99.90;;;;;;5091667;28;20479;-55
2022/01/09 08:42:47;;;;;;;8.20;3.42;;;0.60;99.90;;;;;;5091652;28;20056;-55
2022/01/09 08:45:15;;;;;;;7.93;4.10;;;0.80;99.90;;;;;;5090980;28;20048;-54
2022/01/09 08:47:43;;;;;;;9.82;5.03;;;0.90;99.90;;;;;;5091706;28;20047;-53
2022/01/09 08:50:13;;;;;;;11.18;5.55;;;1.00;99.90;;;;;;5091570;28;20040;-53
2022/01/09 08:52:40;;;;;;;9.32;3.67;;;1.00;99.90;;;;;;5091642;28;20047;-55
2022/01/09 08:55:07;;;;;;;10.07;3.17;;;1.00;99.90;;;;;;5091126;28;20032;-53
2022/01/09 08:57:34;;;;;;;;;;;1.10;99.90;;;;;;5091722;28;20044;-55
2022/01/09 09:00:02;;;;;;;7.63;4.07;;;1.10;99.90;;;;;;5091241;28;19920;-54
2022/01/09 09:02:29;;;;;;;6.13;2.90;;;1.10;99.90;;;;;;5071204;28;20045;-55
2022/01/09 09:04:56;;;;;;;6.22;3.05;;;1.10;99.90;;;;;;5071337;28;20123;-55
2022/01/09 09:07:24;;;;;;;7.68;4.05;;;1.10;99.90;;;;;;5070724;28;20048;-55
2022/01/09 09:09:52;;;;;;;11.02;4.13;;;1.10;99.90;;;;;;5071171;28;20055;-54
2022/01/09 09:12:20;;;;;;;6.65;3.22;;;1.00;99.90;;;;;;5071052;28;20403;-52
2022/01/09 09:14:48;;;;;;;8.82;3.80;;;0.80;99.90;;;;;;5071218;28;20451;-53
2022/01/09 09:17:15;;;;;;;9.43;3.80;;;0.80;99.90;;;;;;5070666;28;20055;-55
2022/01/09 09:19:42;;;;;;;;;;;0.70;99.90;;;;;;5071876;28;20062;-55
2022/01/09 09:22:09;;;;;;;13.52;4.10;;;0.70;99.90;;;;;;5071050;28;19920;-54
2022/01/09 09:24:37;;;;;;;12.95;3.80;;;0.80;99.90;;;;;;5071102;28;20044;-53
2022/01/09 09:27:05;;;;;;;11.15;5.93;;;0.80;99.90;;;;;;5070851;28;20517;-56
2022/01/09 09:29:32;;;;;;;9.18;5.60;;;0.90;99.90;;;;;;5070762;28;20045;-52
2022/01/09 09:32:00;;;;;;;20.88;9.23;;;1.00;99.90;;;;;;5070841;28;20055;-53
2022/01/09 09:34:26;;;;;;;17.73;8.38;;;1.00;99.90;;;;;;5071015;28;20059;-53
2022/01/09 09:36:53;;;;;;;13.00;6.22;;;1.10;99.90;;;;;;5070473;28;20041;-54
2022/01/09 09:39:20;;;;;;;11.77;5.88;;;1.20;99.90;;;;;;5070957;28;20079;-54
2022/01/09 09:41:48;;;;;;;12.38;5.57;;;1.20;99.90;;;;;;5074738;28;20036;-52
2022/01/09 09:44:14;;;;;;;;;;;1.30;99.90;;;;;;5074888;28;20036;-52
2022/01/09 09:46:48;;;;;;;7.82;4.03;;;1.30;99.90;;;;;;5074171;28;20335;-52
2022/01/09 09:49:16;;;;;;;8.73;4.68;;;1.30;99.90;;;;;;5074478;28;20053;-53
2022/01/09 09:51:43;;;;;;;8.27;5.45;;;1.40;99.90;;;;;;5074357;28;20494;-55
2022/01/09 09:54:10;;;;;;;10.23;5.78;;;1.40;99.90;;;;;;5074141;28;20816;-54
2022/01/09 09:56:38;;;;;;;10.23;5.30;;;1.50;99.90;;;;;;5073951;28;20049;-53
2022/01/09 09:59:05;;;;;;;7.82;4.22;;;1.40;99.90;;;;;;5074165;28;20071;-52
2022/01/09 10:01:34;;;;;;;8.55;4.40;;;1.40;99.90;;;;;;5074384;28;20086;-53
2022/01/09 10:04:05;;;;;;;7.07;4.00;;;1.50;99.90;;;;;;5074170;28;20064;-54
2022/01/09 10:06:42;;;;;;;8.25;3.85;;;1.50;99.90;;;;;;5073973;28;20431;-53
2022/01/09 10:09:20;;;;;;;14.20;6.82;;;1.60;99.90;;;;;;5074175;28;20044;-51
2022/01/09 10:11:51;;;;;;;13.65;6.80;;;1.60;99.90;;;;;;5074146;28;20041;-53
2022/01/09 10:14:28;;;;;;;19.50;6.07;;;1.50;99.90;;;;;;5074061;28;20083;-53
2022/01/09 10:17:16;;;;;;;23.48;7.88;;;1.40;99.90;;;;;;5073451;28;20040;-52
2022/01/09 10:19:52;;;;;;;21.88;12.32;;;1.20;99.90;;;;;;5074004;28;20043;-53
2022/01/09 10:22:27;;;;;;;22.65;8.73;;;1.10;99.90;;;;;;5074056;28;20040;-54
2022/01/09 10:24:55;;;;;;;14.82;6.80;;;1.10;99.90;;;;;;5073795;28;20044;-52
2022/01/09 10:27:28;;;;;;;14.95;5.72;;;1.10;99.90;;;;;;5073471;28;20040;-54
2022/01/09 10:29:55;;;;;;;12.25;7.05;;;1.10;99.90;;;;;;5100450;22;20039;-53
2022/01/09 10:32:26;;;;;;;;;;;1.20;99.90;;;;;;5114465;28;20126;-50
2022/01/09 10:35:04;;;;;;;14.77;8.02;;;1.20;99.90;;;;;;5114081;28;19953;-50
2022/01/09 10:37:31;;;;;;;12.57;6.50;;;1.20;99.90;;;;;;5113854;28;20047;-50
2022/01/09 10:39:59;;;;;;;23.48;9.88;;;1.40;99.90;;;;;;5106412;28;20093;-52
2022/01/09 10:42:26;;;;;;;34.08;14.00;;;1.20;99.90;;;;;;5093507;28;20052;-51
2022/01/09 10:44:53;;;;;;;;;;;1.00;99.90;;;;;;5094243;28;20055;-50
2022/01/09 10:47:20;;;;;;;28.08;10.90;;;1.00;99.90;;;;;;5093259;28;19926;-50
2022/01/09 10:49:52;;;;;;;11.50;5.78;;;1.10;99.90;;;;;;5088063;28;20032;-50
2022/01/09 10:52:26;;;;;;;14.55;5.90;;;1.10;99.90;;;;;;5074269;28;20051;-50
2022/01/09 10:54:55;;;;;;;16.08;6.07;;;1.10;99.90;;;;;;5073251;28;20040;-53
2022/01/09 10:57:29;;;;;;;19.95;6.22;;;1.20;99.90;;;;;;5072830;28;20552;-52
2022/01/09 11:00:07;;;;;;;17.63;5.95;;;1.30;99.90;;;;;;5072977;28;20040;-50
2022/01/09 11:02:34;;;;;;;;;;;1.40;99.90;;;;;;5073379;28;20496;-51
2022/01/09 11:05:01;;;;;;;13.95;5.65;;;1.40;99.90;;;;;;5073165;28;20014;-52
2022/01/09 11:07:29;;;;;;;22.33;6.82;;;1.50;99.90;;;;;;5072838;28;20464;-51
2022/01/09 11:09:58;;;;;;;27.60;6.85;;;1.50;99.90;;;;;;5072894;28;20048;-54
2022/01/09 11:12:32;;;;;;;13.35;4.85;;;1.60;99.90;;;;;;5073001;28;20052;-52
2022/01/09 11:15:03;;;;;;;11.15;5.90;;;1.80;99.90;;;;;;5073103;28;20416;-51
2022/01/09 11:17:31;;;;;;;15.90;7.60;;;2.00;99.90;;;;;;5072821;28;20040;-50
2022/01/09 11:19:58;;;;;;;16.02;9.07;;;1.90;99.90;;;;;;5072734;28;20032;-54
2022/01/09 11:22:26;;;;;;;;;;;2.00;99.90;;;;;;5073057;28;20049;-51
2022/01/09 11:25:31;;;;;;;16.77;8.18;;;2.30;99.90;;;;;;5072682;28;19924;-50
2022/01/09 11:28:23;;;;;;;12.98;7.95;;;2.40;99.90;;;;;;5022308;28;20125;-53
2022/01/09 11:31:23;;;;;;;16.27;7.85;;;2.40;99.90;;;;;;5072461;28;20098;-54
2022/01/09 11:34:06;;;;;;;13.35;6.85;;;2.50;99.90;;;;;;5072270;28;20052;-51
2022/01/09 11:37:08;;;;;;;12.68;6.10;;;2.50;99.90;;;;;;5072098;28;20094;-50
2022/01/09 11:39:36;;;;;;;13.02;6.75;;;2.50;99.90;;;;;;5072517;28;20558;-54
2022/01/09 11:42:17;;;;;;;17.23;8.95;;;2.40;99.90;;;;;;5072337;28;20090;-56
2022/01/09 11:44:49;;;;;;;12.40;6.43;;;2.30;99.90;;;;;;5072388;28;20090;-52
2022/01/09 11:47:17;;;;;;;14.55;6.38;;;2.20;99.90;;;;;;5071839;28;20041;-55
2022/01/09 11:49:52;;;;;;;10.98;6.45;;;2.20;99.90;;;;;;5072189;28;20052;-50
2022/01/09 11:52:24;;;;;;;20.05;10.70;;;2.10;99.90;;;;;;5072178;28;20043;-50
2022/01/09 11:55:00;;;;;;;23.67;11.98;;;2.10;99.90;;;;;;5072096;28;20418;-51
2022/01/09 11:57:46;;;;;;;25.23;12.38;;;2.00;99.90;;;;;;5071585;28;20098;-51
2022/01/09 12:00:31;;;;;;;32.00;16.65;;;2.00;99.90;;;;;;5090721;28;20085;-54
2022/01/09 12:02:59;;;;;;;28.00;13.93;;;1.90;99.90;;;;;;5089144;28;20381;-52
2022/01/09 12:05:26;;;;;;;20.42;9.07;;;1.90;99.90;;;;;;5091410;28;20089;-51
2022/01/09 12:07:54;;;;;;;17.55;9.40;;;2.00;99.90;;;;;;5089134;28;20048;-51
2022/01/09 12:10:29;;;;;;;24.73;13.38;;;2.10;99.90;;;;;;5092073;28;20119;-53
2022/01/09 12:12:57;;;;;;;33.22;16.80;;;2.00;99.90;;;;;;5091804;28;20048;-52
2022/01/09 12:15:38;;;;;;;22.63;12.15;;;2.00;99.90;;;;;;5091724;28;20113;-51
2022/01/09 12:18:07;;;;;;;27.77;13.30;;;2.10;99.90;;;;;;5091892;28;20044;-52
2022/01/09 12:20:43;;;;;;;32.00;13.20;;;2.20;99.90;;;;;;5092038;28;20066;-55
2022/01/09 12:23:21;;;;;;;36.25;12.82;;;2.20;99.90;;;;;;5091760;28;20506;-51
2022/01/09 12:25:51;;;;;;;;;;;2.20;99.90;;;;;;5092000;28;20086;-54
2022/01/09 12:28:24;;;;;;;30.15;12.93;;;2.30;99.90;;;;;;5091684;28;19920;-51
2022/01/09 12:30:57;;;;;;;18.02;9.13;;;2.40;99.90;;;;;;5091022;28;20441;-52
2022/01/09 12:33:31;;;;;;;16.88;7.93;;;2.40;99.90;;;;;;5091810;28;20044;-52
2022/01/09 12:36:07;;;;;;;14.13;8.02;;;2.50;99.90;;;;;;5073372;28;20484;-52
2022/01/09 12:38:46;;;;;;;12.50;6.45;;;2.50;99.90;;;;;;5091396;28;20511;-51
2022/01/09 12:41:27;;;;;;;11.52;7.10;;;2.50;99.90;;;;;;5091704;28;20047;-53
2022/01/09 12:44:05;;;;;;;11.48;7.53;;;2.40;99.90;;;;;;5091707;28;20047;-52
2022/01/09 12:46:34;;;;;;;13.60;7.85;;;2.40;99.90;;;;;;5091246;28;20036;-52
2022/01/09 12:49:07;;;;;;;23.13;9.80;;;2.50;99.90;;;;;;5091498;28;20042;-53
2022/01/09 12:51:36;;;;;;;26.52;10.90;;;2.50;99.90;;;;;;5091657;28;20127;-55
2022/01/09 12:54:06;;;;;;;18.02;9.02;;;2.40;99.90;;;;;;5091576;28;20044;-51
2022/01/09 12:56:38;;;;;;;17.60;8.80;;;2.40;99.90;;;;;;5091229;28;20048;-52
2022/01/09 12:59:10;;;;;;;15.70;8.18;;;2.40;99.90;;;;;;5072897;28;20458;-51
2022/01/09 13:01:47;;;;;;;24.63;13.10;;;2.50;99.90;;;;;;5091570;28;20492;-51